sensor_id;sensor_type;location;lat;lon;timestamp;P1;durP1;ratioP1;P2;durP2;ratioP2
19879;SDS011;10102;50.828;4.416;2023-10-13T00:01:33;27.83;;;15.80;;
19879;SDS011;10102;50.828;4.416;2023-10-13T00:03:59;32.05;;;17.33;;
19879;SDS011;10102;50.828;4.416;2023-10-13T00:06:30;30.33;;;16.33;;
19879;SDS011;10102;50.828;4.416;2023-10-13T00:08:56;29.10;;;17.08;;
19879;SDS011;10102;50.828;4.416;2023-10-13T00:11:22;29.42;;;17.48;;
19879;SDS011;10102;50.828;4.416;2023-10-13T00:13:47;33.00;;;16.67;;
19879;SDS011;10102;50.828;4.416;2023-10-13T00:16:19;38.63;;;18.70;;
19879;SDS011;10102;50.828;4.416;2023-10-13T00:18:54;34.05;;;17.90;;
19879;SDS011;10102;50.828;4.416;2023-10-13T00:21:22;37.13;;;17.35;;
19879;SDS011;10102;50.828;4.416;2023-10-13T00:23:58;34.13;;;19.70;;
19879;SDS011;10102;50.828;4.416;2023-10-13T00:26:31;30.70;;;17.60;;
19879;SDS011;10102;50.828;4.416;2023-10-13T00:29:01;41.42;;;17.77;;
19879;SDS011;10102;50.828;4.416;2023-10-13T00:31:43;32.83;;;18.65;;
19879;SDS011;10102;50.828;4.416;2023-10-13T00:34:13;35.60;;;19.02;;
19879;SDS011;10102;50.828;4.416;2023-10-13T00:36:52;41.13;;;19.00;;
19879;SDS011;10102;50.828;4.416;2023-10-13T00:39:37;35.95;;;20.80;;
19879;SDS011;10102;50.828;4.416;2023-10-13T00:42:09;36.22;;;19.15;;
19879;SDS011;10102;50.828;4.416;2023-10-13T00:44:44;33.17;;;18.85;;
19879;SDS011;10102;50.828;4.416;2023-10-13T00:47:15;36.35;;;20.77;;
19879;SDS011;10102;50.828;4.416;2023-10-13T00:49:47;35.45;;;20.33;;
19879;SDS011;10102;50.828;4.416;2023-10-13T00:52:13;39.60;;;20.52;;
19879;SDS011;10102;50.828;4.416;2023-10-13T00:54:41;43.55;;;22.30;;
19879;SDS011;10102;50.828;4.416;2023-10-13T00:57:12;39.45;;;22.40;;
19879;SDS011;10102;50.828;4.416;2023-10-13T00:59:57;41.78;;;21.77;;
19879;SDS011;10102;50.828;4.416;2023-10-13T01:02:25;33.25;;;20.70;;
19879;SDS011;10102;50.828;4.416;2023-10-13T01:05:03;36.70;;;21.38;;
19879;SDS011;10102;50.828;4.416;2023-10-13T01:07:29;41.53;;;22.58;;
19879;SDS011;10102;50.828;4.416;2023-10-13T01:09:55;39.33;;;21.00;;
19879;SDS011;10102;50.828;4.416;2023-10-13T01:12:21;40.50;;;21.42;;
19879;SDS011;10102;50.828;4.416;2023-10-13T01:14:50;36.13;;;20.38;;
19879;SDS011;10102;50.828;4.416;2023-10-13T01:17:16;37.38;;;20.67;;
19879;SDS011;10102;50.828;4.416;2023-10-13T01:19:41;40.50;;;20.83;;
19879;SDS011;10102;50.828;4.416;2023-10-13T01:22:07;40.58;;;21.20;;
19879;SDS011;10102;50.828;4.416;2023-10-13T01:24:34;38.22;;;20.40;;
19879;SDS011;10102;50.828;4.416;2023-10-13T01:27:06;37.17;;;18.95;;
19879;SDS011;10102;50.828;4.416;2023-10-13T01:29:50;43.45;;;19.55;;
19879;SDS011;10102;50.828;4.416;2023-10-13T01:32:22;27.83;;;18.40;;
19879;SDS011;10102;50.828;4.416;2023-10-13T01:34:48;28.65;;;17.88;;
19879;SDS011;10102;50.828;4.416;2023-10-13T01:37:15;31.48;;;17.25;;
19879;SDS011;10102;50.828;4.416;2023-10-13T01:39:44;33.80;;;18.88;;
19879;SDS011;10102;50.828;4.416;2023-10-13T01:42:12;33.17;;;17.77;;
19879;SDS011;10102;50.828;4.416;2023-10-13T01:44:44;29.95;;;16.05;;
19879;SDS011;10102;50.828;4.416;2023-10-13T01:47:10;29.83;;;15.52;;
19879;SDS011;10102;50.828;4.416;2023-10-13T01:49:37;26.48;;;15.93;;
19879;SDS011;10102;50.828;4.416;2023-10-13T01:52:15;27.17;;;14.48;;
19879;SDS011;10102;50.828;4.416;2023-10-13T01:54:46;24.98;;;14.60;;
19879;SDS011;10102;50.828;4.416;2023-10-13T01:57:14;31.90;;;15.50;;
19879;SDS011;10102;50.828;4.416;2023-10-13T01:59:46;26.85;;;14.07;;
19879;SDS011;10102;50.828;4.416;2023-10-13T02:02:13;27.55;;;14.40;;
19879;SDS011;10102;50.828;4.416;2023-10-13T02:04:40;30.05;;;14.88;;
19879;SDS011;10102;50.828;4.416;2023-10-13T02:07:20;21.42;;;13.45;;
19879;SDS011;10102;50.828;4.416;2023-10-13T02:09:46;28.65;;;14.23;;
19879;SDS011;10102;50.828;4.416;2023-10-13T02:12:12;29.55;;;15.05;;
19879;SDS011;10102;50.828;4.416;2023-10-13T02:14:40;28.85;;;15.07;;
19879;SDS011;10102;50.828;4.416;2023-10-13T02:17:07;27.65;;;14.05;;
19879;SDS011;10102;50.828;4.416;2023-10-13T02:19:46;24.77;;;13.77;;
19879;SDS011;10102;50.828;4.416;2023-10-13T02:22:12;26.02;;;13.48;;
19879;SDS011;10102;50.828;4.416;2023-10-13T02:24:55;24.23;;;12.85;;
19879;SDS011;10102;50.828;4.416;2023-10-13T02:27:26;23.13;;;12.45;;
19879;SDS011;10102;50.828;4.416;2023-10-13T02:29:52;26.77;;;12.90;;
19879;SDS011;10102;50.828;4.416;2023-10-13T02:32:23;21.02;;;11.80;;
19879;SDS011;10102;50.828;4.416;2023-10-13T02:34:51;27.27;;;13.38;;
19879;SDS011;10102;50.828;4.416;2023-10-13T02:37:17;25.00;;;12.65;;
19879;SDS011;10102;50.828;4.416;2023-10-13T02:39:44;20.70;;;12.60;;
19879;SDS011;10102;50.828;4.416;2023-10-13T02:42:10;28.73;;;12.30;;
19879;SDS011;10102;50.828;4.416;2023-10-13T02:44:48;21.08;;;13.20;;
19879;SDS011;10102;50.828;4.416;2023-10-13T02:47:14;26.58;;;12.57;;
19879;SDS011;10102;50.828;4.416;2023-10-13T02:49:40;29.10;;;11.23;;
19879;SDS011;10102;50.828;4.416;2023-10-13T02:52:11;26.52;;;12.02;;
19879;SDS011;10102;50.828;4.416;2023-10-13T02:54:41;22.27;;;11.45;;
19879;SDS011;10102;50.828;4.416;2023-10-13T02:57:16;23.50;;;11.65;;
19879;SDS011;10102;50.828;4.416;2023-10-13T02:59:43;23.52;;;11.85;;
19879;SDS011;10102;50.828;4.416;2023-10-13T03:02:13;20.17;;;10.40;;
19879;SDS011;10102;50.828;4.416;2023-10-13T03:04:54;27.27;;;11.52;;
19879;SDS011;10102;50.828;4.416;2023-10-13T03:07:27;25.20;;;12.60;;
19879;SDS011;10102;50.828;4.416;2023-10-13T03:09:59;25.10;;;12.10;;
19879;SDS011;10102;50.828;4.416;2023-10-13T03:12:26;26.50;;;11.73;;
19879;SDS011;10102;50.828;4.416;2023-10-13T03:14:58;26.23;;;11.27;;
19879;SDS011;10102;50.828;4.416;2023-10-13T03:17:45;22.98;;;11.65;;
19879;SDS011;10102;50.828;4.416;2023-10-13T03:20:12;30.45;;;11.68;;
19879;SDS011;10102;50.828;4.416;2023-10-13T03:22:47;28.08;;;10.82;;
19879;SDS011;10102;50.828;4.416;2023-10-13T03:25:17;22.48;;;10.35;;
19879;SDS011;10102;50.828;4.416;2023-10-13T03:27:49;24.83;;;10.60;;
19879;SDS011;10102;50.828;4.416;2023-10-13T03:30:16;33.60;;;10.73;;
19879;SDS011;10102;50.828;4.416;2023-10-13T03:32:42;25.05;;;10.70;;
19879;SDS011;10102;50.828;4.416;2023-10-13T03:35:12;24.65;;;11.15;;
19879;SDS011;10102;50.828;4.416;2023-10-13T03:37:38;25.17;;;10.73;;
19879;SDS011;10102;50.828;4.416;2023-10-13T03:40:11;29.33;;;10.55;;
19879;SDS011;10102;50.828;4.416;2023-10-13T03:42:50;22.58;;;10.55;;
19879;SDS011;10102;50.828;4.416;2023-10-13T03:45:32;20.30;;;10.13;;
19879;SDS011;10102;50.828;4.416;2023-10-13T03:50:36;24.95;;;10.73;;
19879;SDS011;10102;50.828;4.416;2023-10-13T03:53:27;27.92;;;10.73;;
19879;SDS011;10102;50.828;4.416;2023-10-13T03:55:58;21.90;;;9.73;;
19879;SDS011;10102;50.828;4.416;2023-10-13T03:58:38;26.88;;;10.23;;
19879;SDS011;10102;50.828;4.416;2023-10-13T04:01:07;21.02;;;9.68;;
19879;SDS011;10102;50.828;4.416;2023-10-13T04:03:35;17.02;;;7.97;;
19879;SDS011;10102;50.828;4.416;2023-10-13T04:06:06;22.67;;;9.73;;
19879;SDS011;10102;50.828;4.416;2023-10-13T04:08:33;24.83;;;9.70;;
19879;SDS011;10102;50.828;4.416;2023-10-13T04:11:08;20.58;;;9.40;;
19879;SDS011;10102;50.828;4.416;2023-10-13T04:13:52;21.55;;;8.85;;
19879;SDS011;10102;50.828;4.416;2023-10-13T04:16:37;22.85;;;9.90;;
19879;SDS011;10102;50.828;4.416;2023-10-13T04:19:17;18.98;;;9.57;;
19879;SDS011;10102;50.828;4.416;2023-10-13T04:21:51;26.80;;;9.98;;
19879;SDS011;10102;50.828;4.416;2023-10-13T04:24:25;27.75;;;9.70;;
19879;SDS011;10102;50.828;4.416;2023-10-13T04:27:00;22.40;;;9.00;;
19879;SDS011;10102;50.828;4.416;2023-10-13T04:29:54;20.58;;;8.73;;
19879;SDS011;10102;50.828;4.416;2023-10-13T04:32:35;25.85;;;9.38;;
19879;SDS011;10102;50.828;4.416;2023-10-13T04:35:11;24.30;;;8.57;;
19879;SDS011;10102;50.828;4.416;2023-10-13T04:37:39;23.63;;;8.95;;
19879;SDS011;10102;50.828;4.416;2023-10-13T04:40:40;23.05;;;9.25;;
19879;SDS011;10102;50.828;4.416;2023-10-13T04:43:23;18.48;;;8.93;;
19879;SDS011;10102;50.828;4.416;2023-10-13T04:46:16;21.35;;;9.27;;
19879;SDS011;10102;50.828;4.416;2023-10-13T04:49:01;35.00;;;10.70;;
19879;SDS011;10102;50.828;4.416;2023-10-13T04:51:35;21.95;;;9.23;;
19879;SDS011;10102;50.828;4.416;2023-10-13T04:54:20;23.17;;;11.65;;
19879;SDS011;10102;50.828;4.416;2023-10-13T04:56:58;18.83;;;10.05;;
19879;SDS011;10102;50.828;4.416;2023-10-13T04:59:43;24.00;;;8.75;;
19879;SDS011;10102;50.828;4.416;2023-10-13T05:02:42;22.92;;;8.55;;
19879;SDS011;10102;50.828;4.416;2023-10-13T05:05:27;22.08;;;8.52;;
19879;SDS011;10102;50.828;4.416;2023-10-13T05:08:12;26.40;;;8.77;;
19879;SDS011;10102;50.828;4.416;2023-10-13T05:10:56;28.10;;;8.35;;
19879;SDS011;10102;50.828;4.416;2023-10-13T05:13:40;28.08;;;9.02;;
19879;SDS011;10102;50.828;4.416;2023-10-13T05:16:41;25.67;;;9.50;;
19879;SDS011;10102;50.828;4.416;2023-10-13T05:19:25;16.40;;;7.43;;
19879;SDS011;10102;50.828;4.416;2023-10-13T05:22:10;21.55;;;7.88;;
19879;SDS011;10102;50.828;4.416;2023-10-13T05:24:54;31.98;;;8.90;;
19879;SDS011;10102;50.828;4.416;2023-10-13T05:27:39;21.48;;;8.02;;
19879;SDS011;10102;50.828;4.416;2023-10-13T05:30:23;20.73;;;8.13;;
19879;SDS011;10102;50.828;4.416;2023-10-13T05:33:07;22.33;;;7.47;;
19879;SDS011;10102;50.828;4.416;2023-10-13T05:35:52;29.08;;;7.75;;
19879;SDS011;10102;50.828;4.416;2023-10-13T05:38:36;21.08;;;7.55;;
19879;SDS011;10102;50.828;4.416;2023-10-13T05:41:21;18.20;;;7.57;;
19879;SDS011;10102;50.828;4.416;2023-10-13T05:44:06;27.02;;;7.10;;
19879;SDS011;10102;50.828;4.416;2023-10-13T05:46:50;18.88;;;7.18;;
19879;SDS011;10102;50.828;4.416;2023-10-13T05:49:46;24.95;;;8.75;;
19879;SDS011;10102;50.828;4.416;2023-10-13T05:52:34;21.15;;;7.82;;
19879;SDS011;10102;50.828;4.416;2023-10-13T05:55:19;19.00;;;7.53;;
19879;SDS011;10102;50.828;4.416;2023-10-13T05:58:04;21.20;;;7.55;;
19879;SDS011;10102;50.828;4.416;2023-10-13T06:00:48;23.67;;;7.80;;
19879;SDS011;10102;50.828;4.416;2023-10-13T06:03:32;18.73;;;6.90;;
19879;SDS011;10102;50.828;4.416;2023-10-13T06:06:16;13.32;;;6.22;;
19879;SDS011;10102;50.828;4.416;2023-10-13T06:09:00;29.88;;;8.77;;
19879;SDS011;10102;50.828;4.416;2023-10-13T06:11:44;14.75;;;7.60;;
19879;SDS011;10102;50.828;4.416;2023-10-13T06:14:28;22.05;;;7.75;;
19879;SDS011;10102;50.828;4.416;2023-10-13T06:17:12;18.90;;;7.13;;
19879;SDS011;10102;50.828;4.416;2023-10-13T06:19:56;17.35;;;6.47;;
19879;SDS011;10102;50.828;4.416;2023-10-13T06:22:40;24.35;;;7.20;;
19879;SDS011;10102;50.828;4.416;2023-10-13T06:25:24;19.75;;;6.15;;
19879;SDS011;10102;50.828;4.416;2023-10-13T06:28:08;19.55;;;7.18;;
19879;SDS011;10102;50.828;4.416;2023-10-13T06:30:57;20.88;;;7.32;;
19879;SDS011;10102;50.828;4.416;2023-10-13T06:33:25;15.38;;;6.30;;
19879;SDS011;10102;50.828;4.416;2023-10-13T06:35:57;20.05;;;7.20;;
19879;SDS011;10102;50.828;4.416;2023-10-13T06:38:23;16.83;;;6.32;;
19879;SDS011;10102;50.828;4.416;2023-10-13T06:40:49;16.08;;;5.95;;
19879;SDS011;10102;50.828;4.416;2023-10-13T06:43:18;21.80;;;6.30;;
19879;SDS011;10102;50.828;4.416;2023-10-13T06:45:47;21.40;;;7.05;;
19879;SDS011;10102;50.828;4.416;2023-10-13T06:48:32;26.58;;;6.95;;
19879;SDS011;10102;50.828;4.416;2023-10-13T06:51:00;25.80;;;7.32;;
19879;SDS011;10102;50.828;4.416;2023-10-13T06:53:31;13.75;;;5.90;;
19879;SDS011;10102;50.828;4.416;2023-10-13T06:56:05;18.45;;;6.50;;
19879;SDS011;10102;50.828;4.416;2023-10-13T06:58:32;18.63;;;6.38;;
19879;SDS011;10102;50.828;4.416;2023-10-13T07:00:58;16.10;;;6.07;;
19879;SDS011;10102;50.828;4.416;2023-10-13T07:03:26;26.52;;;7.00;;
19879;SDS011;10102;50.828;4.416;2023-10-13T07:05:52;20.83;;;6.60;;
19879;SDS011;10102;50.828;4.416;2023-10-13T07:08:19;17.02;;;6.10;;
19879;SDS011;10102;50.828;4.416;2023-10-13T07:10:48;19.08;;;6.40;;
19879;SDS011;10102;50.828;4.416;2023-10-13T07:13:27;17.83;;;6.93;;
19879;SDS011;10102;50.828;4.416;2023-10-13T07:16:01;15.68;;;6.32;;
19879;SDS011;10102;50.828;4.416;2023-10-13T07:18:33;23.75;;;6.28;;
19879;SDS011;10102;50.828;4.416;2023-10-13T07:21:08;16.02;;;6.30;;
19879;SDS011;10102;50.828;4.416;2023-10-13T07:23:37;19.85;;;6.38;;
19879;SDS011;10102;50.828;4.416;2023-10-13T07:26:04;23.58;;;6.63;;
19879;SDS011;10102;50.828;4.416;2023-10-13T07:28:33;19.88;;;5.95;;
19879;SDS011;10102;50.828;4.416;2023-10-13T07:31:02;19.75;;;6.38;;
19879;SDS011;10102;50.828;4.416;2023-10-13T07:33:28;21.00;;;7.22;;
19879;SDS011;10102;50.828;4.416;2023-10-13T07:36:03;12.25;;;5.20;;
19879;SDS011;10102;50.828;4.416;2023-10-13T07:38:41;16.42;;;5.88;;
19879;SDS011;10102;50.828;4.416;2023-10-13T07:41:08;16.20;;;6.20;;
19879;SDS011;10102;50.828;4.416;2023-10-13T07:43:35;15.60;;;6.07;;
19879;SDS011;10102;50.828;4.416;2023-10-13T07:46:04;16.58;;;6.32;;
19879;SDS011;10102;50.828;4.416;2023-10-13T07:48:40;16.95;;;6.32;;
19879;SDS011;10102;50.828;4.416;2023-10-13T07:51:10;19.40;;;6.60;;
19879;SDS011;10102;50.828;4.416;2023-10-13T07:53:41;17.52;;;6.05;;
19879;SDS011;10102;50.828;4.416;2023-10-13T07:56:08;15.43;;;5.90;;
19879;SDS011;10102;50.828;4.416;2023-10-13T07:58:37;15.75;;;6.00;;
19879;SDS011;10102;50.828;4.416;2023-10-13T08:01:12;13.82;;;6.85;;
19879;SDS011;10102;50.828;4.416;2023-10-13T08:03:42;15.90;;;5.90;;
19879;SDS011;10102;50.828;4.416;2023-10-13T08:06:20;24.42;;;6.30;;
19879;SDS011;10102;50.828;4.416;2023-10-13T08:08:51;15.27;;;6.57;;
19879;SDS011;10102;50.828;4.416;2023-10-13T08:11:19;22.65;;;7.03;;
19879;SDS011;10102;50.828;4.416;2023-10-13T08:13:48;14.80;;;5.57;;
19879;SDS011;10102;50.828;4.416;2023-10-13T08:16:36;13.18;;;5.85;;
19879;SDS011;10102;50.828;4.416;2023-10-13T08:19:19;24.55;;;6.60;;
19879;SDS011;10102;50.828;4.416;2023-10-13T08:21:52;18.15;;;5.53;;
19879;SDS011;10102;50.828;4.416;2023-10-13T08:24:39;19.65;;;5.70;;
19879;SDS011;10102;50.828;4.416;2023-10-13T08:27:06;13.27;;;5.68;;
19879;SDS011;10102;50.828;4.416;2023-10-13T08:29:51;23.45;;;6.72;;
19879;SDS011;10102;50.828;4.416;2023-10-13T08:32:26;17.10;;;5.85;;
19879;SDS011;10102;50.828;4.416;2023-10-13T08:34:56;20.48;;;6.13;;
19879;SDS011;10102;50.828;4.416;2023-10-13T08:37:24;23.65;;;6.90;;
19879;SDS011;10102;50.828;4.416;2023-10-13T08:40:00;22.95;;;6.25;;
19879;SDS011;10102;50.828;4.416;2023-10-13T08:42:35;16.42;;;6.40;;
19879;SDS011;10102;50.828;4.416;2023-10-13T08:45:06;22.33;;;6.45;;
19879;SDS011;10102;50.828;4.416;2023-10-13T08:47:49;24.48;;;6.15;;
19879;SDS011;10102;50.828;4.416;2023-10-13T08:50:45;18.90;;;6.07;;
19879;SDS011;10102;50.828;4.416;2023-10-13T08:53:20;16.83;;;6.30;;
19879;SDS011;10102;50.828;4.416;2023-10-13T08:55:58;18.77;;;5.95;;
19879;SDS011;10102;50.828;4.416;2023-10-13T08:58:44;15.13;;;5.50;;
19879;SDS011;10102;50.828;4.416;2023-10-13T09:04:09;21.48;;;6.88;;
19879;SDS011;10102;50.828;4.416;2023-10-13T09:09:26;15.90;;;6.38;;
19879;SDS011;10102;50.828;4.416;2023-10-13T09:11:55;18.52;;;6.70;;
19879;SDS011;10102;50.828;4.416;2023-10-13T09:14:38;15.35;;;6.78;;
19879;SDS011;10102;50.828;4.416;2023-10-13T09:17:12;16.42;;;6.45;;
19879;SDS011;10102;50.828;4.416;2023-10-13T09:19:59;22.83;;;8.70;;
19879;SDS011;10102;50.828;4.416;2023-10-13T09:22:45;15.02;;;6.03;;
19879;SDS011;10102;50.828;4.416;2023-10-13T09:25:27;17.77;;;6.88;;
19879;SDS011;10102;50.828;4.416;2023-10-13T09:27:58;25.77;;;6.70;;
19879;SDS011;10102;50.828;4.416;2023-10-13T09:30:28;15.80;;;6.22;;
19879;SDS011;10102;50.828;4.416;2023-10-13T09:33:02;19.58;;;6.18;;
19879;SDS011;10102;50.828;4.416;2023-10-13T09:35:40;16.98;;;7.20;;
19879;SDS011;10102;50.828;4.416;2023-10-13T09:38:16;21.88;;;7.45;;
19879;SDS011;10102;50.828;4.416;2023-10-13T09:40:42;21.13;;;7.00;;
19879;SDS011;10102;50.828;4.416;2023-10-13T09:43:18;18.35;;;6.90;;
19879;SDS011;10102;50.828;4.416;2023-10-13T09:45:47;19.88;;;7.88;;
19879;SDS011;10102;50.828;4.416;2023-10-13T09:48:38;16.95;;;5.20;;
19879;SDS011;10102;50.828;4.416;2023-10-13T09:51:14;21.52;;;8.15;;
19879;SDS011;10102;50.828;4.416;2023-10-13T09:53:52;23.98;;;7.32;;
19879;SDS011;10102;50.828;4.416;2023-10-13T09:56:27;17.67;;;6.05;;
19879;SDS011;10102;50.828;4.416;2023-10-13T10:01:33;10.82;;;6.70;;
19879;SDS011;10102;50.828;4.416;2023-10-13T10:04:06;22.73;;;6.38;;
19879;SDS011;10102;50.828;4.416;2023-10-13T10:06:54;18.15;;;6.30;;
19879;SDS011;10102;50.828;4.416;2023-10-13T10:09:30;13.63;;;6.15;;
19879;SDS011;10102;50.828;4.416;2023-10-13T10:17:26;22.60;;;6.85;;
19879;SDS011;10102;50.828;4.416;2023-10-13T10:19:58;14.45;;;6.60;;
19879;SDS011;10102;50.828;4.416;2023-10-13T10:22:24;21.55;;;6.20;;
19879;SDS011;10102;50.828;4.416;2023-10-13T10:24:55;20.20;;;6.10;;
19879;SDS011;10102;50.828;4.416;2023-10-13T10:27:29;18.35;;;5.45;;
19879;SDS011;10102;50.828;4.416;2023-10-13T10:29:56;20.17;;;6.18;;
19879;SDS011;10102;50.828;4.416;2023-10-13T10:35:40;20.25;;;6.18;;
19879;SDS011;10102;50.828;4.416;2023-10-13T10:38:08;20.50;;;6.68;;
19879;SDS011;10102;50.828;4.416;2023-10-13T10:41:01;30.35;;;6.53;;
19879;SDS011;10102;50.828;4.416;2023-10-13T10:46:13;23.73;;;5.95;;
19879;SDS011;10102;50.828;4.416;2023-10-13T10:48:44;23.83;;;6.70;;
19879;SDS011;10102;50.828;4.416;2023-10-13T10:51:14;24.52;;;7.05;;
19879;SDS011;10102;50.828;4.416;2023-10-13T10:53:46;20.70;;;6.43;;
19879;SDS011;10102;50.828;4.416;2023-10-13T10:56:23;23.90;;;6.72;;
19879;SDS011;10102;50.828;4.416;2023-10-13T10:58:59;15.65;;;6.15;;
19879;SDS011;10102;50.828;4.416;2023-10-13T11:01:25;15.32;;;5.72;;
19879;SDS011;10102;50.828;4.416;2023-10-13T11:04:02;23.58;;;6.00;;
19879;SDS011;10102;50.828;4.416;2023-10-13T11:06:37;22.30;;;6.90;;
19879;SDS011;10102;50.828;4.416;2023-10-13T11:09:11;14.80;;;6.10;;
19879;SDS011;10102;50.828;4.416;2023-10-13T11:11:55;28.90;;;7.13;;
19879;SDS011;10102;50.828;4.416;2023-10-13T11:14:25;20.92;;;7.85;;
19879;SDS011;10102;50.828;4.416;2023-10-13T11:16:53;22.52;;;7.28;;
19879;SDS011;10102;50.828;4.416;2023-10-13T11:19:42;28.95;;;8.43;;
19879;SDS011;10102;50.828;4.416;2023-10-13T11:22:12;18.85;;;6.55;;
19879;SDS011;10102;50.828;4.416;2023-10-13T11:24:57;16.98;;;7.45;;
19879;SDS011;10102;50.828;4.416;2023-10-13T11:27:29;25.80;;;7.20;;
19879;SDS011;10102;50.828;4.416;2023-10-13T11:30:10;23.08;;;6.18;;
19879;SDS011;10102;50.828;4.416;2023-10-13T11:32:39;25.00;;;6.68;;
19879;SDS011;10102;50.828;4.416;2023-10-13T11:35:10;17.95;;;5.82;;
19879;SDS011;10102;50.828;4.416;2023-10-13T11:37:48;19.98;;;6.88;;
19879;SDS011;10102;50.828;4.416;2023-10-13T11:40:28;22.05;;;6.93;;
19879;SDS011;10102;50.828;4.416;2023-10-13T11:43:21;21.25;;;6.88;;
19879;SDS011;10102;50.828;4.416;2023-10-13T11:45:49;27.48;;;7.47;;
19879;SDS011;10102;50.828;4.416;2023-10-13T11:48:42;20.30;;;6.45;;
19879;SDS011;10102;50.828;4.416;2023-10-13T11:51:09;19.27;;;6.55;;
19879;SDS011;10102;50.828;4.416;2023-10-13T11:53:57;13.65;;;5.95;;
19879;SDS011;10102;50.828;4.416;2023-10-13T11:56:23;28.02;;;7.10;;
19879;SDS011;10102;50.828;4.416;2023-10-13T11:58:50;23.52;;;6.43;;
19879;SDS011;10102;50.828;4.416;2023-10-13T12:01:17;22.88;;;6.55;;
19879;SDS011;10102;50.828;4.416;2023-10-13T12:03:43;19.25;;;5.97;;
19879;SDS011;10102;50.828;4.416;2023-10-13T12:06:39;28.50;;;6.18;;
19879;SDS011;10102;50.828;4.416;2023-10-13T12:09:06;21.35;;;6.55;;
19879;SDS011;10102;50.828;4.416;2023-10-13T12:11:45;24.08;;;7.03;;
19879;SDS011;10102;50.828;4.416;2023-10-13T12:14:14;17.58;;;6.60;;
19879;SDS011;10102;50.828;4.416;2023-10-13T12:16:46;19.00;;;7.53;;
19879;SDS011;10102;50.828;4.416;2023-10-13T12:19:22;18.88;;;6.57;;
19879;SDS011;10102;50.828;4.416;2023-10-13T12:21:49;16.42;;;6.13;;
19879;SDS011;10102;50.828;4.416;2023-10-13T12:24:19;11.90;;;5.22;;
19879;SDS011;10102;50.828;4.416;2023-10-13T12:27:01;20.25;;;6.35;;
19879;SDS011;10102;50.828;4.416;2023-10-13T12:29:27;13.45;;;5.90;;
19879;SDS011;10102;50.828;4.416;2023-10-13T12:31:56;19.17;;;6.38;;
19879;SDS011;10102;50.828;4.416;2023-10-13T12:34:37;16.42;;;6.10;;
19879;SDS011;10102;50.828;4.416;2023-10-13T12:37:22;20.95;;;6.35;;
19879;SDS011;10102;50.828;4.416;2023-10-13T12:40:16;20.63;;;6.15;;
19879;SDS011;10102;50.828;4.416;2023-10-13T12:43:02;22.42;;;5.82;;
19879;SDS011;10102;50.828;4.416;2023-10-13T12:45:48;19.33;;;6.22;;
19879;SDS011;10102;50.828;4.416;2023-10-13T12:48:34;20.50;;;5.88;;
19879;SDS011;10102;50.828;4.416;2023-10-13T12:51:20;19.20;;;6.93;;
19879;SDS011;10102;50.828;4.416;2023-10-13T12:53:49;23.02;;;6.50;;
19879;SDS011;10102;50.828;4.416;2023-10-13T12:56:16;15.32;;;6.05;;
19879;SDS011;10102;50.828;4.416;2023-10-13T12:58:43;17.75;;;6.15;;
19879;SDS011;10102;50.828;4.416;2023-10-13T13:01:19;18.33;;;5.45;;
19879;SDS011;10102;50.828;4.416;2023-10-13T13:03:46;17.52;;;5.82;;
19879;SDS011;10102;50.828;4.416;2023-10-13T13:08:51;15.57;;;5.57;;
19879;SDS011;10102;50.828;4.416;2023-10-13T13:11:17;15.50;;;5.47;;
19879;SDS011;10102;50.828;4.416;2023-10-13T13:13:42;13.40;;;6.57;;
19879;SDS011;10102;50.828;4.416;2023-10-13T13:16:11;15.30;;;5.60;;
19879;SDS011;10102;50.828;4.416;2023-10-13T13:18:44;18.85;;;5.85;;
19879;SDS011;10102;50.828;4.416;2023-10-13T13:21:10;23.30;;;5.45;;
19879;SDS011;10102;50.828;4.416;2023-10-13T13:23:48;16.67;;;6.38;;
19879;SDS011;10102;50.828;4.416;2023-10-13T13:26:14;14.65;;;5.90;;
19879;SDS011;10102;50.828;4.416;2023-10-13T13:28:43;14.20;;;5.75;;
19879;SDS011;10102;50.828;4.416;2023-10-13T13:31:19;15.52;;;5.45;;
19879;SDS011;10102;50.828;4.416;2023-10-13T13:33:51;13.00;;;5.38;;
19879;SDS011;10102;50.828;4.416;2023-10-13T13:36:17;13.50;;;6.20;;
19879;SDS011;10102;50.828;4.416;2023-10-13T13:38:44;18.15;;;5.68;;
19879;SDS011;10102;50.828;4.416;2023-10-13T13:41:12;15.00;;;5.85;;
19879;SDS011;10102;50.828;4.416;2023-10-13T13:43:42;13.18;;;6.00;;
19879;SDS011;10102;50.828;4.416;2023-10-13T13:46:23;18.30;;;5.55;;
19879;SDS011;10102;50.828;4.416;2023-10-13T13:48:52;20.13;;;5.50;;
19879;SDS011;10102;50.828;4.416;2023-10-13T13:51:24;14.30;;;5.85;;
19879;SDS011;10102;50.828;4.416;2023-10-13T13:53:53;11.88;;;5.55;;
19879;SDS011;10102;50.828;4.416;2023-10-13T13:56:23;15.55;;;6.05;;
19879;SDS011;10102;50.828;4.416;2023-10-13T13:58:53;12.38;;;5.78;;
19879;SDS011;10102;50.828;4.416;2023-10-13T14:01:31;13.75;;;5.53;;
19879;SDS011;10102;50.828;4.416;2023-10-13T14:03:59;16.13;;;5.95;;
19879;SDS011;10102;50.828;4.416;2023-10-13T14:06:28;15.73;;;5.60;;
19879;SDS011;10102;50.828;4.416;2023-10-13T14:08:57;15.23;;;6.15;;
19879;SDS011;10102;50.828;4.416;2023-10-13T14:11:29;14.98;;;6.10;;
19879;SDS011;10102;50.828;4.416;2023-10-13T14:16:41;12.50;;;5.45;;
19879;SDS011;10102;50.828;4.416;2023-10-13T14:19:10;16.75;;;6.35;;
19879;SDS011;10102;50.828;4.416;2023-10-13T14:21:37;14.27;;;5.90;;
19879;SDS011;10102;50.828;4.416;2023-10-13T14:24:03;12.43;;;5.65;;
19879;SDS011;10102;50.828;4.416;2023-10-13T14:26:38;13.48;;;5.57;;
19879;SDS011;10102;50.828;4.416;2023-10-13T14:29:03;10.48;;;5.32;;
19879;SDS011;10102;50.828;4.416;2023-10-13T14:31:49;14.27;;;5.70;;
19879;SDS011;10102;50.828;4.416;2023-10-13T14:34:15;16.60;;;6.55;;
19879;SDS011;10102;50.828;4.416;2023-10-13T14:36:41;20.20;;;6.68;;
19879;SDS011;10102;50.828;4.416;2023-10-13T14:39:13;10.38;;;5.55;;
19879;SDS011;10102;50.828;4.416;2023-10-13T14:41:39;14.00;;;6.10;;
19879;SDS011;10102;50.828;4.416;2023-10-13T14:44:06;15.20;;;6.10;;
19879;SDS011;10102;50.828;4.416;2023-10-13T14:46:32;16.20;;;6.55;;
19879;SDS011;10102;50.828;4.416;2023-10-13T14:49:04;12.38;;;5.78;;
19879;SDS011;10102;50.828;4.416;2023-10-13T14:51:30;21.92;;;6.18;;
19879;SDS011;10102;50.828;4.416;2023-10-13T14:53:56;13.55;;;5.85;;
19879;SDS011;10102;50.828;4.416;2023-10-13T14:56:25;17.55;;;5.90;;
19879;SDS011;10102;50.828;4.416;2023-10-13T14:58:52;13.73;;;5.75;;
19879;SDS011;10102;50.828;4.416;2023-10-13T15:01:20;19.40;;;6.43;;
19879;SDS011;10102;50.828;4.416;2023-10-13T15:03:47;10.70;;;5.72;;
19879;SDS011;10102;50.828;4.416;2023-10-13T15:06:18;15.52;;;5.93;;
19879;SDS011;10102;50.828;4.416;2023-10-13T15:08:54;11.95;;;5.38;;
19879;SDS011;10102;50.828;4.416;2023-10-13T15:11:24;19.00;;;5.95;;
19879;SDS011;10102;50.828;4.416;2023-10-13T15:14:04;18.30;;;6.22;;
19879;SDS011;10102;50.828;4.416;2023-10-13T15:16:32;13.95;;;6.63;;
19879;SDS011;10102;50.828;4.416;2023-10-13T15:19:01;16.83;;;6.30;;
19879;SDS011;10102;50.828;4.416;2023-10-13T15:21:29;16.73;;;5.93;;
19879;SDS011;10102;50.828;4.416;2023-10-13T15:23:59;13.85;;;5.97;;
19879;SDS011;10102;50.828;4.416;2023-10-13T15:26:29;13.40;;;6.20;;
19879;SDS011;10102;50.828;4.416;2023-10-13T15:28:55;15.40;;;6.20;;
19879;SDS011;10102;50.828;4.416;2023-10-13T15:31:23;15.20;;;5.45;;
19879;SDS011;10102;50.828;4.416;2023-10-13T15:33:58;16.67;;;6.10;;
19879;SDS011;10102;50.828;4.416;2023-10-13T15:36:24;14.15;;;5.68;;
19879;SDS011;10102;50.828;4.416;2023-10-13T15:38:51;14.55;;;5.50;;